Aktualne dane pomiarowe

Uwaga, wersja testowa! Automatyczne pobieranie danych za pomocą narzędzi lub skryptów to umożliwiających jest zabronione.

Dane meteo z obszaru Polski uzyskane na podstawie depesz SYNOP pobieranych co godzinę z NWS. Najedź myszką na symbol przedstawiony w tabeli, aby uzyskać informacje co do jego znaczenia. Prosimy pamiętać, że to testowa wersja strony, która jeszcze nie jest ukończona. Stworzono również jest krótki FAQ dotyczący korzystania z tej podstrony Anomalie temperatury w chwili obecnej odniesione są do okresu referencyjnego 1951-2016. Okres ten będzie później zmieniony na 1981-2010. Kliknij ikonę aby pobrać plik CSV. Kliknij ikonę aby wygenerować mapę synoptyczną dla danego terminu.

Wybierz Datę:    

        

Elbląg-Milejewo (12160)

Dane terminowe dla wybranej stacji. Kliknij datę, aby otrzymać dane z tego terminu dla wszystkich stacji.

TemperaturaZachmurzenieWiatrCiśnienieOpadyPogoda
 Data t td wb tx tn tg rh  Nt Nl Cl Cm Ch ws wd g1 g2 wx mslp ppp ch 24h 12h t ww ww w1 w2  
2019-05-20 23:00:00 15.4 14.6 14.8--- 9510.0wxwxwxwx3wx--31006.2 984.4 0.2---------
2019-05-20 22:00:00 15.8 14.5 14.9--- 9220.0wxwxwxwx3wx--31005.8 984.0 -0.5---------
2019-05-20 21:00:00 16.8 14.8 15.4--- 8820.0wxwxwxwx4wx--41005.6 983.9 -0.2---------
2019-05-20 20:00:00 16.8 15.0 15.5--- 8920.0wxwxwxwx4wx--41005.9 984.2 0.8---------
2019-05-20 19:00:00 17.2 15.2 15.8--- 8815.0wx-wx4wx---1006.2 984.5 0.7---------
2019-05-20 18:00:00 17.5 15.1 15.8 25.8 17.3- 8615.0wxwxwxwx3wx-1331005.7 984.1 0.8- 3.012wx-w1--
2019-05-20 17:00:00 17.9 15.5 16.2--- 8610.0wxwxwx4wx--41005.0 983.4 -0.2---wx-w1w2--
2019-05-20 16:00:00 18.4 14.7 15.9--- 798.0wxwxwx5wx101351005.4 983.8 0.2---wx-w1w2--
2019-05-20 15:00:00 25.0 15.3 18.8--- 5520.0wxwxwx6wx111161004.4 983.3 -1.1---wx---
2019-05-20 14:00:00 25.4 15.7 19.1--- 5520.0wxwxwxwx6wx-961004.6 983.6 -0.9---------
2019-05-20 13:00:00 25.0 16.4 19.3--- 5920.0wxwxwxwxwx5wx-1051004.7 983.6 -1.2---------
2019-05-20 12:00:00 24.8 16.2 19.2--- 5920.0wxwxwxwxwx5wx101051005.5 984.4 -0.6- 0.06------
2019-05-20 11:00:00 24.0 16.8 19.2--- 6420.0wxwxwxwx5wx-1051005.7 984.5 -0.8---------
2019-05-20 10:00:00 23.2 17.4 19.3--- 7020.0wxwxwxwx5wx101051006.0 984.8 -0.8---------
2019-05-20 09:00:00 21.7 17.1 18.5--- 7520.0wxwxwxwx4wx--41006.3 985.0 -0.8---------
2019-05-20 08:00:00 20.4 16.4 17.6--- 7820.0wx-wx3wx--31006.7 985.3 -0.8---------
2019-05-20 07:00:00 18.6 15.7 16.6--- 8315.0wx-wx4wx--41007.2 985.6 -0.8---------
2019-05-20 06:00:00 17.3 14.8 15.6 17.4 13.7 12 8515.0wx-wx4wx--41007.5 985.8 -0.8 6.8 0.012----- 0.7
2019-05-20 05:00:00 15.7 14.1 14.6--- 9010.0wx-wx3wx--31007.9 986.1 -0.4---------
2019-05-20 04:00:00 14.6 13.5 13.8--- 9310.0wx-wxwx3wx--31008.3 986.4 -0.5---------
2019-05-20 03:00:00 13.7 13.1 13.2--- 966.0wx-wx2wx--21008.6 986.6 -0.4---wx---
2019-05-20 02:00:00 14.0 13.4 13.5--- 968.0wx-wx2wx--21008.4 986.5 -0.7---wx---
2019-05-20 01:00:00 14.4 13.6 13.8--- 9510.0wx-wxwx2wx---1008.8 986.9 -0.3---------
2019-05-20 00:00:00 14.9 13.9 14.2--- 9415.0wx-wxwx2wx--21008.9 987.0 -0.2- 0.06------
2019-05-19 23:00:00 15.0 13.9 14.2--- 9315.0wxwxwxwx2wx--21009.1 987.2 0.0---------
2019-05-19 22:00:00 15.6 14.3 14.7--- 9220.0wx-wx2wx--21009.0 987.2 0.2---------
2019-05-19 21:00:00 16.1 14.5 15.0--- 9020.0wx-wx2wx--21009.0 987.2 0.3---------
2019-05-19 20:00:00 16.7 15.1 15.6--- 9020.0wx-wx2wx--21009.0 987.2 0.0---------
2019-05-19 19:00:00 16.9 15.1 15.6--- 8920.0wx-wx2wx--21008.7 987.0 0.1---------
2019-05-19 18:00:00 17.1 15.1 15.7 19.3 15.8- 8820.0wxwxwxwx2wx--21008.6 986.9 -0.3- 7.012wx-w1--
2019-05-19 17:00:00 17.4 15.4 16.0--- 8820.0wxwxwxwx3wx--31008.9 987.2 -0.2---------
2019-05-19 16:00:00 17.8 15.6 16.2--- 8720.0wxwxwxwx4wx--41008.6 986.9 -0.9---wx---
2019-05-19 15:00:00 17.3 16.2 16.5--- 9315.0wxwxwx3wx--31008.9 987.2 -0.9---wx-w1w2--
2019-05-19 14:00:00 17.3 15.8 16.2--- 918.0wxwxwx3wx--31009.1 987.4 -1.1---wx-w1w2--
2019-05-19 13:00:00 18.2 16.2 16.8--- 8815.0wxwxwx3wx--31009.5 987.8 -0.7---wx-w1w2--
2019-05-19 12:00:00 19.1 16.5 17.3--- 8515.0wxwxwxwx2wx--21009.7 988.1 -0.5- 0.16wx-w1--
2019-05-19 11:00:00 19.3 15.8 16.9--- 8020.0wxwxwxwx3wx--31010.1 988.5 -0.2---------
2019-05-19 10:00:00 18.7 15.0 16.2--- 7920.0wxwxwxwx3wx--31010.1 988.5 0.0---------
2019-05-19 09:00:00 17.1 15.3 15.8--- 8920.0wxwxwxwx2wx--21010.4 988.6 0.3---wx-w1--
2019-05-19 08:00:00 16.3 15.0 15.4--- 9215.0wxwxwx3wx--31010.5 988.7 0.1---wx---
2019-05-19 07:00:00 16.4 15.1 15.5--- 9215.0wxwxwxwx2wx--21010.3 988.5 -0.2---wx-w1--
2019-05-19 06:00:00 15.8 14.3 14.7 19.2 14.2 13 9115.0wxwxwxwx3wx--31010.1 988.3 -0.4 5.9 0.112wx-- 4.9
2019-05-19 05:00:00 14.5 13.5 13.8--- 9410.0wxwxwxwx2wx--21010.6 988.6 0.1---wx-w1--
2019-05-19 04:00:00 14.2 13.1 13.4--- 9315.0wxwxwx2wx--21010.7 988.7 -0.1---wx-w1--
2019-05-19 03:00:00 14.3 13.0 13.4--- 928.0wxwxwx3wx--31010.7 988.7 0.3---wx---
2019-05-19 02:00:00 14.3 13.2 13.5--- 9310.0wx-wx2wx--21010.5 988.5 -0.2---------
2019-05-19 01:00:00 14.4 12.9 13.3--- 9115.0wx-wx1wx--11010.8 988.8 -0.5---------
2019-05-19 00:00:00 15.3 13.3 13.9--- 8820.0wxwxwxwx2wx--21010.3 988.4 -0.9- 0.06------
44.5 ms

 

Print Friendly, PDF & Email